Impacts METAR Board INFO
IDs:

KSEA - Seattle-Tacoma Intl, WA, US

Updated at: 1432 UTC 22 Nov 2017
Potential Impact None Slight Moderate High
Time22/02Z 22/03Z 22/04Z 22/05Z 22/06Z 22/07Z 22/08Z 22/09Z 22/10Z 22/11Z 22/12Z 22/13Z 22/14Z
VIS10 3 6 3 10 9 9 10 7 5 10 10 10
CIG28 29 31 8 15 6 30 41 45 30 36 33 37
CoverOVCOVCOVCOVCOVCOVCOVCOVCOVCOVCOVCOVCOVC
FltCatMVFRMVFRVFRIFRMVFRIFRMVFRVFRVFRMVFRVFRVFRVFR
WX--RA BR-RA BRRA BR-RA---RA---RA-RA BR------
WDir1701801801501201601001301401701901600
WSpd9 7 9 8 7 3 3 6 5 4 6 4 0
WGst-- -- -- -- -- -- -- -- -- -- -- -- --
Raw hourly METARs
KSEA 220153Z 17009KT 10SM BKN028 OVC035 14/13 A2985 RMK AO2 DZE50 SLP116 P0001 T01440133
KSEA 220253Z 18007KT 3SM RA BR OVC029 14/14 A2988 RMK AO2 RAB13 SLP124 P0003 60004 T01440139 53010
KSEA 220353Z 18009KT 6SM -RA BR FEW007 BKN031 OVC041 14/14 A2989 RMK AO2 SLP129 P0012 T01440139
KSEA 220503Z 15008KT 3SM RA BR SCT004 BKN008 OVC015 14/14 A2992 RMK AO2 P0004 T01440139
KSEA 220604Z 12007KT 10SM -RA SCT008 BKN015 OVC022 13/13 A2994 RMK AO2 RAB0559 P0001 T01330128
KSEA 220653Z 16003KT 9SM BKN006 BKN011 OVC025 14/13 A2994 RMK AO2 RAB0559E08B30E47 SLP147 P0001 T01390133
KSEA 220753Z 10003KT 9SM -RA SCT005 OVC030 14/13 A2995 RMK AO2 RAB0654E09B53 SLP149 P0000 T01390133 401560033
KSEA 220853Z 13006KT 10SM FEW008 BKN041 OVC100 14/13 A2995 RMK AO2 RAE41 SLP147 P0005 60006 T01390133 50003
KSEA 220953Z 14005KT 7SM -RA SCT025 SCT037 OVC045 13/13 A2996 RMK AO2 RAB04 SLP151 P0002 T01330128
KSEA 221053Z 17004KT 5SM -RA BR BKN030 BKN039 OVC050 14/13 A2995 RMK AO2 RAE17B42 SLP149 P0003 T01390133
KSEA 221153Z 19006KT 10SM OVC036 14/14 A2995 RMK AO2 RAE03 SLP149 P0000 60011 70124 T01440139 10150 20133 50002
KSEA 221253Z 16004KT 10SM OVC033 14/14 A2996 RMK AO2 SLP151 T01440139
KSEA 221353Z 00000KT 10SM BKN037 OVC046 14/13 A2996 RMK AO2 SLP152 T01440133